Brandon, FL (33511)

6:11 AM EST en Noviembre 25, 2017 (GMT -0500)
Providence Lakes | | Change Station
Aviso en curso: Dense Fog Advisory

Alt 42 ft 27.91 °N, 82.30 °W | Updated 13 seconds ago

Parcialmente nublado
Parcialmente nublado
50.7 ° F
Sensación térmica 50.7 ° F
N
0.0
Viento Variable Viento desde Sur

Hoy
Alta -- | Baja -- ° F
--% Posibilidad de precipitaciones
Ayer
Alta -- | Baja -- ° F
Precip. -- pul
Presión 30.02 pul
Visibilidad 0.2 Millas
Nubes Nublado 100 ft
Punto de rocío 49 ° F
Humedad 93%
Precipitaciones 0.00 pul
Espesor de la nieve No disponible.
6:58 AM 5:33 PM
Creciente, 38% visible
METAR KVDF 251055Z AUTO 00000KT 1/4SM FG OVC001 11/10 A3002 RMK AO2
Presión 30.02 pul
Visibilidad 0.2 Millas
Nubes Nublado 100 ft
Punto de rocío 49 ° F
Humedad 93%
Precipitaciones 0.00 pul
Espesor de la nieve No disponible.
6:58 AM 5:33 PM
Creciente, 38% visible
METAR KVDF 251055Z AUTO 00000KT 1/4SM FG OVC001 11/10 A3002 RMK AO2

Get Your Daily Forecast Email!

Thanks for signing up!

Be on the lookout for a verification email in your inbox.

You'll start receiving severe weather alerts in your inbox..

×

10-Day Weather Forecast

Almanac

Astronomía

Nov. 25, 2017 Salida Puesta
Hora real
Crepúsculo civil
Crepúsculo náutico
Crepúsculo astronómico
Luna
Horas de luz
Horas de luz
Tomorrow will be .
, % of the Moon is Illuminated

Extremos de hoy

Máximos del estado Bajos del estado

Community

WunderPhotos

Category 6

Welcome to Category 6. This is the collective home for Weather Underground's featured writeups by Dr. Jeff Masters (right), Bob Henson (left), Chris Burt, and other regular contributors.

Nearby

Calidad del aire

  Calidad del aire Índice AQ Contaminante
Not available.

Grosos de nieve

Estación Profundido Altura

Actividad de terremotos

Ciudad Distance Mag. Tiempo y dato
Magnitud mínima muestra es 2,5.

Temperaturas de aguas costeras

Lugar Temperatura

Stations

Estaciones meteorológicas cercanas

Ubicación de la estación Temp. Vientos helados Punto de rocío Humedad Viento Precip. Alt Actualizado Tipo
                   

Watches & Warnings

Dense Fog Advisory
Issued: 4:42 AM EST Nov. 25, 2017 – National Weather Service

... Dense fog advisory in effect until 8 am EST this morning...

The National Weather Service in Tampa Bay area - Ruskin FL has
issued a dense fog advisory, which is in effect until 8 am EST
this morning.

* Visibility... a quarter of a mile or less.

* Impacts... visibilities will frequently be reduced to less than
a quarter of a mile. If driving, slow down, use low-beam
headlights, and leave plenty of following distance.

Precautionary/preparedness actions...

A dense fog advisory means visibilities will frequently be
reduced to less than one quarter mile. If driving... slow down...
use your headlights... and leave plenty of distance ahead of you.